Impacts METAR Board INFO
IDs:

KLAS - Las Vegas/McCarran I, NV, US

Updated at: 1801 UTC 17 Jan 2018
Potential Impact None Slight Moderate High
Time17/06Z 17/07Z 17/08Z 17/09Z 17/10Z 17/11Z 17/12Z 17/13Z 17/14Z 17/15Z 17/16Z 17/17Z 17/18Z
VIS10 10 10 10 10 10 10 10 10 10 10 10 10
CIG240 240 220 220 220 -- -- -- -- -- 250 240 --
CoverOVCOVCOVCBKNBKNSCTFEWFEWFEWSCTBKNBKNSCT
FltCatVFRVFRVFRVFRVFRVFRVFRVFRVFRVFRVFRVFRVFR
WX--------------------------
WDir2102302102302702302002200230210010
WSpd5 3 4 3 3 3 4 6 0 3 3 0 3
WGst-- -- -- -- -- -- -- -- -- -- -- -- --
Raw hourly METARs
KLAS 170556Z 21005KT 10SM FEW100 OVC240 11/03 A3022 RMK AO2 SLP227 T01110033 10178 20111 51005
KLAS 170656Z 23003KT 10SM FEW100 OVC240 11/03 A3022 RMK AO2 SLP229 T01110028
KLAS 170756Z 21004KT 10SM FEW100 OVC220 10/03 A3022 RMK AO2 SLP230 T01000033 401830094
KLAS 170856Z 23003KT 10SM BKN220 09/03 A3023 RMK AO2 SLP231 T00940033 51003
KLAS 170956Z 27003KT 10SM BKN220 09/03 A3023 RMK AO2 SLP231 T00890033
KLAS 171056Z 23003KT 10SM SCT250 09/03 A3023 RMK AO2 SLP232 T00890033
KLAS 171156Z 20004KT 10SM FEW250 08/03 A3023 RMK AO2 SLP231 T00830033 10117 20083 50001
KLAS 171256Z 22006KT 10SM FEW250 08/03 A3024 RMK AO2 SLP236 T00780028
KLAS 171356Z 00000KT 10SM FEW250 08/03 A3025 RMK AO2 SLP241 T00780028
KLAS 171456Z 23003KT 10SM SCT250 08/02 A3027 RMK AO2 SLP246 T00830022 53013
KLAS 171556Z 21003KT 10SM BKN250 10/03 A3029 RMK AO2 SLP254 T01000028
KLAS 171656Z 00000KT 10SM BKN240 12/03 A3032 RMK AO2 SLP262 T01220028
KLAS 171756Z 01003KT 10SM SCT240 14/02 A3033 RMK AO2 SLP265 T01440022 10144 20078 51019